Time;durP1;ratioP1;P1;durP2;ratioP2;P2;SDS_P1;SDS_P2;PMS_P1;PMS_P2;Temp;Humidity;BMP_temperature;BMP_pressure;BME280_temperature;BME280_humidity;BME280_pressure;Samples;Min_cycle;Max_cycle;Signal;HPM_P1;HPM_P2
2021/04/21 00:00:12;;;;;;;36.00;18.25;;;;;;;6.15;61.10;98609.83;114753;1203;103075;-71
2021/04/21 00:03:02;;;;;;;33.10;18.95;;;;;;;6.14;61.18;98616.05;114802;1201;103152;-69
2021/04/21 00:05:29;;;;;;;33.87;17.87;;;;;;;6.13;61.18;98607.30;115000;1203;103052;-69
2021/04/21 00:07:59;;;;;;;32.43;17.90;;;;;;;6.13;61.32;98611.71;114864;1203;101680;-74
2021/04/21 00:10:29;;;;;;;37.70;20.20;;;;;;;6.06;61.20;98606.84;116647;1202;101626;-70
2021/04/21 00:12:56;;;;;;;30.10;16.55;;;;;;;6.02;61.36;98605.33;116514;1201;101076;-70
2021/04/21 00:15:24;;;;;;;30.85;16.75;;;;;;;6.01;61.16;98610.69;116549;1202;101137;-71
2021/04/21 00:18:01;;;;;;;31.90;17.15;;;;;;;5.99;61.08;98602.84;116553;1201;101053;-70
2021/04/21 00:20:29;;;;;;;31.77;17.87;;;;;;;5.94;61.43;98597.82;116581;1201;100815;-71
2021/04/21 00:22:59;;;;;;;38.20;22.65;;;;;;;5.92;61.38;98588.31;115943;1203;103197;-70
2021/04/21 00:25:31;;;;;;;38.60;21.90;;;;;;;5.85;61.37;98597.55;114844;1203;103068;-70
2021/04/21 00:28:01;;;;;;;37.75;20.80;;;;;;;5.75;61.04;98590.17;114918;1203;103072;-70
2021/04/21 00:30:31;;;;;;;48.35;26.95;;;;;;;5.45;60.74;98592.89;114881;1203;103162;-71
2021/04/21 00:33:01;;;;;;;46.67;27.77;;;;;;;5.23;60.92;98590.66;114893;1203;103121;-72
2021/04/21 00:35:40;;;;;;;42.73;25.43;;;;;;;5.17;61.53;98595.35;114943;1202;103047;-70
2021/04/21 00:38:16;;;;;;;43.25;25.55;;;;;;;5.18;61.74;98593.55;114815;1203;103043;-70
2021/04/21 00:40:45;;;;;;;42.60;25.30;;;;;;;5.23;61.93;98599.41;114860;1203;103593;-71
2021/04/21 00:43:31;;;;;;;42.60;24.40;;;;;;;5.27;61.67;98592.19;114923;1203;103184;-71
2021/04/21 00:46:09;;;;;;;34.90;20.70;;;;;;;5.32;62.06;98596.23;115378;1203;101191;-70
2021/04/21 00:49:15;;;;;;;38.60;20.95;;;;;;;5.33;61.90;98595.30;114970;1202;103156;-72
2021/04/21 00:51:48;;;;;;;36.33;20.87;;;;;;;5.35;61.98;98595.20;114979;1202;103015;-71
2021/04/21 00:54:26;;;;;;;37.70;20.25;;;;;;;5.35;62.21;98596.06;114986;1202;103118;-71
2021/04/21 00:56:59;;;;;;;34.67;18.90;;;;;;;5.35;61.89;98596.06;114887;1203;103072;-70
2021/04/21 00:59:48;;;;;;;28.63;15.93;;;;;;;5.34;62.22;98598.77;114995;1203;103047;-71
2021/04/21 01:02:21;;;;;;;27.80;14.30;;;;;;;5.33;62.23;98595.30;114837;1202;103181;-70
2021/04/21 01:04:51;;;;;;;24.70;12.83;;;;;;;5.33;62.08;98599.70;114808;1202;103075;-71
2021/04/21 01:07:21;;;;;;;25.20;12.85;;;;;;;5.33;62.13;98595.30;114939;1203;103078;-71
2021/04/21 01:09:54;;;;;;;23.20;11.50;;;;;;;5.35;62.47;98589.92;114684;1203;103075;-71
2021/04/21 01:12:25;;;;;;;24.57;11.13;;;;;;;5.36;62.46;98589.84;114592;1201;103149;-72
2021/04/21 01:14:55;;;;;;;23.47;11.67;;;;;;;5.39;62.52;98593.25;115583;1203;103235;-70
2021/04/21 01:17:26;;;;;;;22.87;11.07;;;;;;;5.40;62.68;98587.03;114998;1203;103050;-70
2021/04/21 01:19:59;;;;;;;21.47;10.87;;;;;;;5.43;62.62;98592.96;115017;1203;103162;-71
2021/04/21 01:22:47;;;;;;;25.43;11.57;;;;;;;5.44;62.69;98593.83;114971;1203;103159;-71
2021/04/21 01:25:24;;;;;;;28.97;15.23;;;;;;;5.44;62.55;98594.66;115030;1202;103044;-71
2021/04/21 01:28:18;;;;;;;29.17;17.00;;;;;;;5.45;62.77;98595.52;114955;1202;103156;-71
2021/04/21 01:30:48;;;;;;;32.03;16.93;;;;;;;5.44;62.73;98596.46;114957;1202;103181;-70
2021/04/21 01:33:23;;;;;;;29.67;16.00;;;;;;;5.42;62.50;98600.98;114885;1202;103146;-70
2021/04/21 01:35:59;;;;;;;29.70;16.90;;;;;;;5.30;62.40;98600.75;114938;1202;103107;-70
2021/04/21 01:38:29;;;;;;;33.75;18.95;;;;;;;5.24;63.01;98598.47;115009;1203;103018;-70
2021/04/21 01:41:01;;;;;;;31.80;18.75;;;;;;;5.16;62.04;98595.42;114952;1203;103280;-71
2021/04/21 01:43:54;;;;;;;33.40;18.27;;;;;;;4.91;62.13;98600.31;114931;1202;103039;-73
2021/04/21 01:46:23;;;;;;;35.33;22.60;;;;;;;4.68;62.52;98588.48;114825;1201;103126;-73
2021/04/21 01:49:02;;;;;;;36.43;22.93;;;;;;;4.65;62.45;98598.31;114931;1201;103069;-72
2021/04/21 01:51:38;;;;;;;33.53;19.10;;;;;;;4.60;62.32;98596.78;114912;1203;103075;-73
2021/04/21 01:54:13;;;;;;;38.13;22.10;;;;;;;4.40;62.42;98600.52;114988;1203;103188;-72
2021/04/21 01:56:43;;;;;;;32.90;18.00;;;;;;;4.17;62.24;98591.24;114987;1203;103085;-72
2021/04/21 01:59:38;;;;;;;30.95;16.50;;;;;;;4.15;63.14;98598.38;115016;1203;103040;-71
2021/04/21 02:02:24;;;;;;;35.07;17.67;;;;;;;4.23;63.35;98600.61;114992;1203;103043;-72
2021/04/21 02:05:15;;;;;;;31.65;18.80;;;;;;;4.30;63.72;98594.05;115005;1203;103068;-72
2021/04/21 02:08:09;;;;;;;29.75;17.75;;;;;;;4.35;62.90;98589.39;114982;1202;103203;-72
2021/04/21 02:10:55;;;;;;;29.23;15.57;;;;;;;4.32;62.76;98595.69;114990;1203;103155;-71
2021/04/21 02:13:53;;;;;;;31.10;17.65;;;;;;;4.32;63.06;98603.59;114965;1203;103095;-71
2021/04/21 02:16:35;;;;;;;29.25;15.70;;;;;;;4.37;63.78;98600.69;114997;1203;103062;-72
2021/04/21 02:19:12;;;;;;;29.00;15.20;;;;;;;4.36;63.53;98601.63;115013;1202;103040;-73
2021/04/21 02:21:53;;;;;;;30.87;16.93;;;;;;;4.30;63.11;98594.92;115000;1202;103187;-71
2021/04/21 02:24:31;;;;;;;27.10;13.90;;;;;;;4.25;63.34;98596.11;114984;1201;103047;-72
2021/04/21 02:27:37;;;;;;;30.40;14.60;;;;;;;4.15;62.83;98593.97;115000;1202;103070;-71
2021/04/21 02:30:10;;;;;;;30.07;13.20;;;;;;;4.11;63.28;98595.06;114849;1203;103248;-72
2021/04/21 02:32:44;;;;;;;29.20;15.20;;;;;;;4.10;63.55;98595.13;114777;1203;103597;-72
2021/04/21 02:35:47;;;;;;;29.40;15.33;;;;;;;4.15;64.09;98595.73;115015;1202;103041;-72
2021/04/21 02:38:59;;;;;;;28.90;15.05;;;;;;;4.25;63.42;98596.11;114996;1203;103079;-72
2021/04/21 02:42:00;;;;;;;28.97;14.60;;;;;;;4.29;63.79;98589.72;114832;1202;103046;-71
2021/04/21 02:44:45;;;;;;;26.05;14.15;;;;;;;4.32;64.29;98595.69;114574;1203;103156;-70
2021/04/21 02:47:29;;;;;;;28.43;14.17;;;;;;;4.34;64.30;98589.48;114705;1202;103151;-71
2021/04/21 02:50:03;;;;;;;28.20;14.20;;;;;;;4.27;64.02;98592.45;114692;1202;103645;-72
2021/04/21 02:52:51;;;;;;;28.63;15.73;;;;;;;4.14;63.93;98589.64;114910;1202;103069;-73
2021/04/21 02:55:42;;;;;;;30.15;16.65;;;;;;;3.96;63.84;98593.25;114903;1203;103139;-71
2021/04/21 02:58:23;;;;;;;31.63;17.73;;;;;;;3.75;63.92;98597.86;115967;1202;102287;-74
2021/04/21 03:01:14;;;;;;;36.05;20.95;;;;;;;3.63;63.92;98594.09;114960;1203;103120;-72
2021/04/21 03:03:53;;;;;;;31.43;18.47;;;;;;;3.65;64.06;98589.61;115017;1202;103140;-70
2021/04/21 03:06:34;;;;;;;31.83;19.73;;;;;;;3.68;64.59;98594.70;114953;1203;103143;-71
2021/04/21 03:09:09;;;;;;;34.83;19.03;;;;;;;3.71;64.31;98595.38;114986;1202;103044;-73
2021/04/21 03:11:39;;;;;;;33.75;20.10;;;;;;;3.78;64.82;98587.17;114962;1202;103494;-73
2021/04/21 03:14:18;;;;;;;34.10;19.90;;;;;;;3.83;64.50;98593.05;115032;1202;103162;-73
2021/04/21 03:17:00;;;;;;;33.60;20.40;;;;;;;3.86;65.07;98592.89;115016;1203;103127;-72
2021/04/21 03:19:53;;;;;;;32.93;20.43;;;;;;;3.92;65.09;98610.13;115008;1203;103117;-72
2021/04/21 03:22:27;;;;;;;32.67;18.23;;;;;;;3.98;64.64;98604.55;114993;1203;103012;-73
2021/04/21 03:24:59;;;;;;;32.65;20.85;;;;;;;4.02;65.24;98603.45;115007;1202;103107;-74
2021/04/21 03:27:34;;;;;;;34.23;20.00;;;;;;;4.05;65.24;98607.72;115016;1203;103069;-72
2021/04/21 03:30:14;;;;;;;32.55;19.90;;;;;;;4.01;64.58;98596.48;114988;1205;103034;-72
2021/04/21 03:32:51;;;;;;;31.20;18.50;;;;;;;4.01;65.24;98601.75;114947;1203;103145;-72
2021/04/21 03:35:23;;;;;;;33.93;20.47;;;;;;;4.04;64.81;98606.85;115033;1203;103148;-72
2021/04/21 03:37:49;;;;;;;32.57;20.47;;;;;;;4.07;65.35;98601.42;115006;1203;103149;-71
2021/04/21 03:40:18;;;;;;;33.30;22.15;;;;;;;4.10;65.46;98608.30;114948;1203;103185;-72
2021/04/21 03:42:48;;;;;;;37.70;23.50;;;;;;;4.13;65.02;98605.50;114947;1203;103206;-72
2021/04/21 03:45:16;;;;;;;33.55;21.85;;;;;;;4.16;65.54;98602.70;114775;1203;103037;-71
2021/04/21 03:47:44;;;;;;;32.10;19.70;;;;;;;4.14;65.40;98602.80;114900;1203;103082;-71
2021/04/21 03:50:13;;;;;;;31.50;18.50;;;;;;;4.13;65.50;98600.23;114821;1202;103312;-71
2021/04/21 03:52:46;;;;;;;33.00;19.25;;;;;;;4.13;65.50;98602.87;114781;1203;103155;-71
2021/04/21 03:55:16;;;;;;;33.17;18.63;;;;;;;4.12;65.22;98609.93;114938;1202;103143;-73
2021/04/21 03:57:47;;;;;;;30.30;18.10;;;;;;;4.11;65.05;98599.47;114942;1203;103203;-71
2021/04/21 04:00:20;;;;;;;30.87;18.47;;;;;;;4.07;64.95;98605.86;114959;1202;103194;-70
2021/04/21 04:02:59;;;;;;;32.93;18.05;;;;;;;4.06;65.02;98610.25;114870;1203;103655;-71
2021/04/21 04:05:29;;;;;;;31.95;18.80;;;;;;;4.02;65.35;98612.21;114916;1202;103036;-68
2021/04/21 04:08:02;;;;;;;32.70;19.20;;;;;;;4.00;64.99;98616.70;114959;1202;103076;-68
2021/04/21 04:10:34;;;;;;;36.10;21.47;;;;;;;3.93;64.82;98617.95;114920;1203;103645;-69
2021/04/21 04:13:10;;;;;;;26.40;15.50;;;;;;;3.83;65.18;98607.07;114664;1201;103161;-69
2021/04/21 04:15:40;;;;;;;33.30;19.20;;;;;;;3.87;65.34;98608.58;114866;1201;103146;-69
2021/04/21 04:18:12;;;;;;;31.37;18.00;;;;;;;3.95;65.63;98609.97;114897;1203;103153;-69
2021/04/21 04:20:42;;;;;;;34.65;18.45;;;;;;;3.97;65.88;98608.10;114830;1203;103060;-70
2021/04/21 04:23:12;;;;;;;36.65;19.95;;;;;;;4.02;65.42;98613.98;114893;1203;103102;-70
2021/04/21 04:25:47;;;;;;;33.57;20.20;;;;;;;4.09;65.77;98615.36;114929;1203;103159;-71
2021/04/21 04:28:14;;;;;;;34.10;20.17;;;;;;;4.13;65.52;98611.63;114852;1203;103075;-68
2021/04/21 04:30:44;;;;;;;33.53;20.83;;;;;;;4.12;65.34;98609.93;114726;1203;102264;-70
2021/04/21 04:33:18;;;;;;;33.30;20.10;;;;;;;4.12;65.85;98614.33;114663;1203;103069;-71
2021/04/21 04:35:46;;;;;;;32.05;18.75;;;;;;;4.09;65.34;98617.13;114853;1202;103271;-73
2021/04/21 04:38:14;;;;;;;35.85;21.15;;;;;;;4.05;65.27;98618.25;114790;1202;103188;-71
2021/04/21 04:40:41;;;;;;;39.10;22.45;;;;;;;3.97;65.51;98616.00;114937;1203;103538;-71
2021/04/21 04:43:10;;;;;;;36.53;22.23;;;;;;;3.90;65.88;98615.48;114951;1202;101415;-72
2021/04/21 04:45:40;;;;;;;35.00;20.85;;;;;;;3.88;66.62;98612.08;114922;1203;103066;-72
2021/04/21 04:48:19;;;;;;;36.40;22.03;;;;;;;3.87;65.95;98623.53;114886;1203;103069;-70
2021/04/21 04:50:50;;;;;;;35.60;21.85;;;;;;;3.94;66.27;98621.42;114717;1203;103052;-71
2021/04/21 04:53:19;;;;;;;35.37;20.80;;;;;;;3.98;65.88;98625.59;114711;1203;103056;-71
2021/04/21 04:55:48;;;;;;;36.50;22.40;;;;;;;4.04;66.26;98621.81;114948;1202;103136;-70
2021/04/21 04:58:22;;;;;;;38.90;21.40;;;;;;;4.14;66.76;98617.73;114904;1203;103136;-71
2021/04/21 05:00:51;;;;;;;35.60;20.60;;;;;;;4.22;66.85;98626.07;114927;1203;103088;-71
2021/04/21 05:03:24;;;;;;;38.80;23.40;;;;;;;4.31;66.26;98620.31;114945;1202;103108;-70
2021/04/21 05:05:58;;;;;;;38.70;23.63;;;;;;;4.43;66.72;98624.06;114805;1202;103290;-71
2021/04/21 05:08:52;;;;;;;34.97;20.10;;;;;;;4.55;66.43;98625.16;114962;1202;103049;-71
2021/04/21 05:11:23;;;;;;;39.20;24.20;;;;;;;4.70;66.63;98626.09;114967;1202;103114;-70
2021/04/21 05:13:52;;;;;;;37.65;22.45;;;;;;;4.81;66.92;98622.02;114856;1203;103185;-71
2021/04/21 05:16:26;;;;;;;34.80;20.85;;;;;;;4.94;67.25;98622.17;114944;1202;103033;-71
2021/04/21 05:19:09;;;;;;;39.17;24.33;;;;;;;5.09;67.12;98625.74;114927;1202;103120;-71
2021/04/21 05:22:20;;;;;;;36.35;22.30;;;;;;;5.23;67.12;98627.58;114874;1202;103063;-70
2021/04/21 05:25:06;;;;;;;36.30;22.60;;;;;;;5.39;67.41;98630.17;114565;1202;103101;-71
2021/04/21 05:27:51;;;;;;;37.87;22.23;;;;;;;5.51;67.26;98629.43;114961;1202;103040;-70
2021/04/21 05:31:04;;;;;;;36.37;21.00;;;;;;;5.66;67.03;98635.61;114982;1203;103146;-70
2021/04/21 05:33:40;;;;;;;36.80;21.00;;;;;;;5.83;67.12;98633.73;114949;1202;103040;-69
2021/04/21 05:36:29;;;;;;;33.45;20.10;;;;;;;5.95;67.30;98640.92;114960;1202;103507;-70
2021/04/21 05:39:34;;;;;;;32.15;20.20;;;;;;;6.09;67.21;98643.62;114878;1202;103168;-71
2021/04/21 05:42:36;;;;;;;36.60;21.33;;;;;;;6.23;67.16;98639.26;114896;1203;103079;-70
2021/04/21 05:45:34;;;;;;;33.55;20.25;;;;;;;6.37;67.25;98636.63;114995;1202;103092;-71
2021/04/21 05:48:33;;;;;;;37.07;22.67;;;;;;;6.52;67.17;98644.55;114906;1202;103162;-69
2021/04/21 05:51:18;;;;;;;33.35;20.55;;;;;;;6.66;67.12;98641.02;114992;1203;103063;-70
2021/04/21 05:53:54;;;;;;;36.93;21.30;;;;;;;6.77;67.39;98637.69;114977;1203;103041;-70
2021/04/21 05:56:56;;;;;;;41.10;23.43;;;;;;;6.89;67.34;98647.48;114710;1203;104246;-70
2021/04/21 05:59:45;;;;;;;36.00;21.90;;;;;;;6.99;67.20;98639.80;114974;1203;103124;-69
2021/04/21 06:02:14;;;;;;;37.43;20.37;;;;;;;7.09;67.01;98643.55;114817;1202;103068;-70
2021/04/21 06:04:41;;;;;;;35.60;20.05;;;;;;;7.16;66.95;98636.05;114745;1203;103028;-71
2021/04/21 06:07:12;;;;;;;36.67;21.30;;;;;;;7.24;67.01;98643.47;114904;1201;103046;-71
2021/04/21 06:09:41;;;;;;;34.55;21.30;;;;;;;7.29;67.06;98644.02;114793;1202;103184;-73
2021/04/21 06:12:15;;;;;;;35.25;21.30;;;;;;;7.38;67.00;98637.27;114810;1203;103149;-72
2021/04/21 06:14:45;;;;;;;36.67;21.87;;;;;;;7.42;67.26;98636.11;114722;1203;103507;-72
2021/04/21 06:17:13;;;;;;;34.15;21.90;;;;;;;7.51;67.03;98632.86;114637;1203;103142;-72
2021/04/21 06:19:44;;;;;;;37.20;22.47;;;;;;;7.59;67.00;98635.84;114869;1203;103254;-72
2021/04/21 06:22:12;;;;;;;36.87;22.77;;;;;;;7.71;67.48;98641.27;114846;1202;103236;-71
2021/04/21 06:24:40;;;;;;;38.90;23.40;;;;;;;7.84;67.19;98635.98;114743;1202;103082;-71
2021/04/21 06:27:12;;;;;;;37.43;24.03;;;;;;;7.97;67.40;98638.63;114908;1200;103152;-72
2021/04/21 06:29:41;;;;;;;35.93;22.67;;;;;;;8.11;67.10;98645.61;114838;1200;103066;-72
2021/04/21 06:32:13;;;;;;;36.60;21.95;;;;;;;8.27;67.38;98645.39;114796;1204;103118;-71
2021/04/21 06:34:42;;;;;;;39.55;22.90;;;;;;;8.41;67.56;98639.11;114943;1202;103111;-72
2021/04/21 06:37:12;;;;;;;41.10;23.40;;;;;;;8.55;67.49;98640.84;114906;1203;103066;-70
2021/04/21 06:39:39;;;;;;;34.17;21.33;;;;;;;8.67;67.00;98636.45;114729;1203;103098;-71
2021/04/21 06:42:06;;;;;;;33.70;20.40;;;;;;;8.75;66.97;98648.20;114963;1202;103152;-72
2021/04/21 06:44:47;;;;;;;36.30;20.60;;;;;;;8.87;67.35;98643.80;114881;1202;103140;-72
2021/04/21 06:47:22;;;;;;;37.40;20.83;;;;;;;8.98;67.31;98645.67;114858;1203;103041;-71
2021/04/21 06:50:07;;;;;;;38.13;23.13;;;;;;;9.12;67.16;98642.03;115518;1203;103066;-72
2021/04/21 06:52:37;;;;;;;31.60;19.23;;;;;;;9.27;67.15;98642.70;114662;1203;103078;-75
2021/04/21 06:55:10;;;;;;;36.50;21.50;;;;;;;9.40;67.22;98634.66;114973;1201;103075;-72
2021/04/21 06:57:38;;;;;;;37.83;21.07;;;;;;;9.52;67.07;98647.02;114924;1202;103040;-71
2021/04/21 07:00:11;;;;;;;37.30;21.20;;;;;;;9.64;67.30;98642.59;114781;1203;103050;-70
2021/04/21 07:02:45;;;;;;;34.90;20.65;;;;;;;9.76;67.41;98632.84;115010;1203;103092;-71
2021/04/21 07:05:36;;;;;;;32.20;19.85;;;;;;;9.90;67.32;98641.56;114957;1203;103114;-72
2021/04/21 07:08:14;;;;;;;34.50;20.70;;;;;;;10.12;67.28;98638.92;114997;1203;103046;-72
2021/04/21 07:11:11;;;;;;;33.50;21.00;;;;;;;10.43;66.91;98635.71;115005;1203;103184;-71
2021/04/21 07:13:49;;;;;;;36.80;21.35;;;;;;;11.72;65.67;98636.79;114983;1201;103182;-71
2021/04/21 07:16:24;;;;;;;34.63;20.47;;;;;;;12.20;65.85;98637.25;114921;1202;103092;-72
2021/04/21 07:18:59;;;;;;;32.27;19.50;;;;;;;12.49;66.11;98641.86;114942;1202;103056;-74
2021/04/21 07:21:29;;;;;;;33.17;19.60;;;;;;;12.70;66.38;98641.79;114868;1202;103153;-72
2021/04/21 07:24:03;;;;;;;34.53;20.90;;;;;;;12.67;66.52;98642.06;114883;1203;103088;-71
2021/04/21 07:26:33;;;;;;;;;;;;;;;12.84;65.95;98643.23;114955;1208;103044;-71
2021/04/21 07:29:04;;;;;;;31.80;19.80;;;;;;;13.17;66.42;98637.67;114922;1203;103075;-72
2021/04/21 07:31:37;;;;;;;34.73;19.10;;;;;;;13.94;65.96;98635.98;114699;1203;103127;-75
2021/04/21 07:34:33;;;;;;;31.50;18.00;;;;;;;14.56;65.80;98640.00;114681;1201;103065;-71
2021/04/21 07:37:02;;;;;;;29.97;19.23;;;;;;;14.39;66.22;98636.27;114915;1202;103069;-72
2021/04/21 07:39:43;;;;;;;32.43;19.43;;;;;;;14.16;66.49;98641.13;114929;1202;103076;-72
2021/04/21 07:42:19;;;;;;;31.83;18.87;;;;;;;14.08;66.31;98648.05;114874;1202;103152;-72
2021/04/21 07:44:54;;;;;;;30.53;18.73;;;;;;;14.59;65.71;98640.53;114635;1203;103092;-71
2021/04/21 07:47:24;;;;;;;31.53;17.93;;;;;;;15.93;64.97;98643.58;114704;1202;103062;-71
2021/04/21 07:50:02;;;;;;;30.65;18.95;;;;;;;17.38;64.06;98645.56;114787;1203;103069;-70
2021/04/21 07:52:35;;;;;;;31.75;19.90;;;;;;;18.62;64.32;98634.67;114929;1203;103181;-71
2021/04/21 07:55:13;;;;;;;30.00;17.13;;;;;;;19.73;64.17;98641.81;114910;1203;103062;-71
2021/04/21 07:57:46;;;;;;;30.60;17.85;;;;;;;20.55;63.75;98642.05;114913;1202;103111;-77
2021/04/21 08:00:28;;;;;;;29.40;17.60;;;;;;;21.27;63.79;98640.45;114939;1202;103072;-79
2021/04/21 08:02:57;;;;;;;31.90;18.63;;;;;;;21.90;63.50;98634.39;114675;1202;103117;-77
2021/04/21 08:05:25;;;;;;;26.53;16.77;;;;;;;22.62;63.50;98645.13;114845;1202;103149;-79
2021/04/21 08:08:01;;;;;;;29.13;17.30;;;;;;;23.24;63.65;98639.75;114638;1203;103018;-72
2021/04/21 08:10:34;;;;;;;28.50;17.80;;;;;;;23.95;63.30;98642.98;115107;1203;103133;-80
2021/04/21 08:13:04;;;;;;;24.55;16.05;;;;;;;24.29;62.96;98641.09;114976;1203;103130;-73
2021/04/21 08:15:41;;;;;;;26.65;16.35;;;;;;;24.72;62.83;98639.78;114683;1203;103516;-69
2021/04/21 08:18:10;;;;;;;23.83;15.33;;;;;;;25.24;63.21;98647.09;114805;1200;103043;-69
2021/04/21 08:20:51;;;;;;;26.15;15.95;;;;;;;25.40;63.04;98640.30;114872;1201;103474;-71
2021/04/21 08:23:31;;;;;;;23.70;13.80;;;;;;;25.49;62.56;98647.16;114911;1203;103111;-70
2021/04/21 08:25:59;;;;;;;24.00;15.20;;;;;;;24.82;62.80;98647.47;114919;1202;103099;-70
2021/04/21 08:28:26;;;;;;;22.37;14.40;;;;;;;24.11;62.85;98649.89;114886;1202;103156;-70
2021/04/21 08:30:58;;;;;;;23.80;13.90;;;;;;;23.16;62.73;98643.47;114859;1203;103079;-67
2021/04/21 08:33:31;;;;;;;27.00;14.40;;;;;;;22.64;62.61;98645.77;114873;1203;103143;-68
2021/04/21 08:35:59;;;;;;;21.15;12.00;;;;;;;22.05;62.12;98660.56;114903;1202;103047;-68
2021/04/21 08:38:28;;;;;;;20.00;11.70;;;;;;;21.35;62.20;98642.19;114832;1203;103162;-72
2021/04/21 08:40:56;;;;;;;21.95;12.10;;;;;;;20.82;62.02;98646.80;114826;1203;103153;-74
2021/04/21 08:43:25;;;;;;;20.70;11.93;;;;;;;20.30;61.27;98658.50;114518;1202;103229;-76
2021/04/21 08:45:53;;;;;;;21.00;10.50;;;;;;;19.59;60.98;98655.06;114377;1202;103803;-75
2021/04/21 08:48:23;;;;;;;19.77;10.40;;;;;;;19.26;60.90;98652.59;114770;1203;103642;-71
2021/04/21 08:50:51;;;;;;;19.30;9.97;;;;;;;19.00;60.92;98653.73;114618;1202;103100;-73
2021/04/21 08:53:21;;;;;;;23.45;11.80;;;;;;;18.67;60.26;98653.84;114748;1203;103220;-72
2021/04/21 08:55:53;;;;;;;25.97;13.07;;;;;;;18.85;60.19;98650.91;114631;1201;103185;-72
2021/04/21 08:58:24;;;;;;;22.85;12.30;;;;;;;19.55;59.52;98652.91;114923;1202;103142;-71
2021/04/21 09:00:51;;;;;;;20.55;11.60;;;;;;;20.16;59.05;98644.82;114871;1203;103073;-72
2021/04/21 09:03:21;;;;;;;20.10;11.50;;;;;;;20.77;58.96;98649.22;114970;1203;103155;-70
2021/04/21 09:05:48;;;;;;;24.57;13.60;;;;;;;21.08;58.63;98653.55;114885;1203;103091;-69
2021/04/21 09:08:16;;;;;;;21.83;10.50;;;;;;;20.93;58.23;98650.88;114683;1200;103275;-69
2021/04/21 09:10:43;;;;;;;19.60;10.80;;;;;;;20.46;58.27;98646.68;114759;1203;103102;-71
2021/04/21 09:13:11;;;;;;;19.77;10.77;;;;;;;20.18;58.35;98653.55;114585;1203;103159;-71
2021/04/21 09:15:38;;;;;;;20.37;10.83;;;;;;;19.96;58.18;98640.95;114850;1203;103068;-69
2021/04/21 09:18:08;;;;;;;23.35;12.50;;;;;;;19.67;57.99;98647.92;114881;1202;103083;-70
2021/04/21 09:20:45;;;;;;;22.25;11.50;;;;;;;19.55;57.63;98645.64;114822;1203;103069;-77
2021/04/21 09:23:14;;;;;;;21.70;11.13;;;;;;;19.93;57.33;98650.27;114817;1202;103092;-75
2021/04/21 09:25:53;;;;;;;21.90;11.40;;;;;;;20.09;56.64;98641.17;114883;1201;103165;-70
2021/04/21 09:28:23;;;;;;;20.65;10.65;;;;;;;20.35;56.08;98629.94;114966;1203;103047;-72
2021/04/21 09:30:59;;;;;;;18.30;9.67;;;;;;;20.50;56.69;98631.78;114893;1203;103156;-71
2021/04/21 09:33:29;;;;;;;19.47;9.57;;;;;;;20.38;56.75;98626.84;114870;1203;103506;-72
2021/04/21 09:35:59;;;;;;;17.33;8.50;;;;;;;19.85;56.24;98626.84;114877;1201;103140;-70
2021/04/21 09:38:30;;;;;;;19.93;9.30;;;;;;;19.02;55.67;98630.13;114667;1203;103038;-71
2021/04/21 09:41:03;;;;;;;16.87;9.07;;;;;;;18.48;55.46;98643.50;114717;1202;103200;-71
2021/04/21 09:43:39;;;;;;;18.97;9.30;;;;;;;17.72;55.60;98633.84;114896;1203;103114;-71
2021/04/21 09:46:20;;;;;;;16.85;7.00;;;;;;;17.34;55.20;98634.31;114912;1202;103079;-72
2021/04/21 09:48:49;;;;;;;15.10;6.07;;;;;;;16.99;54.96;98638.09;114716;1202;103159;-71
2021/04/21 09:51:22;;;;;;;14.75;6.80;;;;;;;17.05;55.09;98627.55;114828;1203;103043;-72
2021/04/21 09:53:50;;;;;;;14.47;6.40;;;;;;;17.32;54.90;98625.57;114843;1203;103079;-72
2021/04/21 09:56:17;;;;;;;13.50;5.97;;;;;;;17.60;55.45;98614.48;114912;1203;103147;-72
2021/04/21 09:58:56;;;;;;;13.20;5.83;;;;;;;17.77;55.06;98617.19;114895;1202;103206;-72
2021/04/21 10:01:27;;;;;;;14.80;6.40;;;;;;;17.69;54.61;98609.97;114851;1203;103166;-71
2021/04/21 10:04:15;;;;;;;12.17;6.07;;;;;;;17.56;54.45;98611.31;114911;1201;103510;-75
2021/04/21 10:06:55;;;;;;;12.50;5.70;;;;;;;17.56;54.43;98624.75;114760;1203;103130;-73
2021/04/21 10:09:35;;;;;;;12.00;5.70;;;;;;;17.61;54.76;98620.72;114906;1203;103069;-70
2021/04/21 10:12:32;;;;;;;11.55;5.50;;;;;;;17.58;53.99;98618.37;114946;1202;103260;-73
2021/04/21 10:15:11;;;;;;;11.37;5.87;;;;;;;17.54;54.26;98612.47;114855;1202;103053;-72
2021/04/21 10:17:41;;;;;;;15.70;6.57;;;;;;;17.39;53.93;98610.46;114857;1203;103168;-71
2021/04/21 10:20:10;;;;;;;16.65;6.40;;;;;;;17.39;53.50;98623.91;114777;1203;103130;-74
2021/04/21 10:22:43;;;;;;;15.87;6.27;;;;;;;17.36;53.75;98618.00;114902;1203;103146;-72
2021/04/21 10:25:14;;;;;;;13.70;6.63;;;;;;;17.31;53.37;98605.08;114936;1202;103303;-72
2021/04/21 10:27:41;;;;;;;10.90;5.67;;;;;;;17.24;53.12;98614.80;114821;1202;103114;-73
2021/04/21 10:30:10;;;;;;;12.65;5.85;;;;;;;17.15;53.15;98613.95;114806;1205;103033;-74
2021/04/21 10:32:38;;;;;;;15.30;6.33;;;;;;;17.05;52.85;98611.43;114641;1202;103047;-72
2021/04/21 10:35:06;;;;;;;14.95;6.60;;;;;;;16.92;52.67;98624.45;114862;1202;103187;-70
2021/04/21 10:37:36;;;;;;;13.67;6.63;;;;;;;16.86;52.49;98611.66;114763;1203;103573;-71
2021/04/21 10:40:05;;;;;;;12.85;6.35;;;;;;;16.81;52.53;98602.25;114788;1203;103145;-70
2021/04/21 10:42:55;;;;;;;20.70;8.20;;;;;;;16.89;53.09;98600.59;114832;1202;103133;-68
2021/04/21 10:45:26;;;;;;;18.20;6.85;;;;;;;17.11;52.87;98599.17;114820;1202;103092;-66
2021/04/21 10:47:56;;;;;;;17.37;7.70;;;;;;;17.25;52.86;98595.84;114842;1202;103857;-67
2021/04/21 10:50:42;;;;;;;15.47;6.67;;;;;;;17.29;52.64;98582.07;114828;1203;103155;-67
2021/04/21 10:53:27;;;;;;;15.07;6.57;;;;;;;17.25;52.79;98582.40;114605;1202;103214;-68
2021/04/21 10:55:55;;;;;;;15.00;6.17;;;;;;;17.28;52.35;98586.59;115419;1201;102514;-70
2021/04/21 10:58:22;;;;;;;13.00;6.00;;;;;;;17.18;52.18;98576.01;115890;1202;103149;-67
2021/04/21 11:00:50;;;;;;;12.40;5.97;;;;;;;17.05;52.35;98568.44;114727;1202;103166;-68
2021/04/21 11:03:25;;;;;;;14.97;6.30;;;;;;;16.97;52.16;98581.85;114730;1203;103528;-69
2021/04/21 11:06:02;;;;;;;14.70;6.90;;;;;;;16.82;52.17;98579.76;114630;1202;103124;-69
2021/04/21 11:08:51;;;;;;;19.10;6.80;;;;;;;16.73;52.24;98571.86;114948;1203;103152;-68
2021/04/21 11:11:35;;;;;;;13.30;5.70;;;;;;;16.72;51.98;98567.48;114896;1203;103081;-69
2021/04/21 11:14:05;;;;;;;11.60;5.70;;;;;;;16.75;51.99;98570.67;114939;1203;103194;-69
2021/04/21 11:16:32;;;;;;;14.37;6.03;;;;;;;16.78;51.90;98572.20;114803;1203;103162;-68
2021/04/21 11:19:18;;;;;;;16.10;6.93;;;;;;;16.77;51.67;98567.84;114801;1203;103063;-69
2021/04/21 11:22:09;;;;;;;14.83;6.73;;;;;;;16.75;51.72;98562.62;114823;1203;103063;-67
2021/04/21 11:24:38;;;;;;;12.27;6.57;;;;;;;16.80;51.91;98565.66;114965;1203;103066;-67
2021/04/21 11:27:39;;;;;;;14.53;6.90;;;;;;;16.87;51.60;98552.43;114606;1202;103101;-68
2021/04/21 11:30:32;;;;;;;12.97;6.57;;;;;;;16.88;51.69;98555.94;116494;1201;101140;-69
2021/04/21 11:32:59;;;;;;;16.20;5.87;;;;;;;16.90;51.65;98556.61;116538;1202;100915;-68
2021/04/21 11:35:30;;;;;;;16.20;6.65;;;;;;;16.92;51.28;98558.12;116533;1201;101906;-69
2021/04/21 11:37:58;;;;;;;14.90;6.63;;;;;;;16.90;50.98;98545.88;115356;1203;103050;-69
2021/04/21 11:40:30;;;;;;;13.20;6.35;;;;;;;16.79;51.09;98549.72;114665;1203;103114;-69
2021/04/21 11:43:15;;;;;;;16.15;7.40;;;;;;;16.71;50.94;98553.20;116439;1202;101051;-69
2021/04/21 11:45:44;;;;;;;15.07;7.17;;;;;;;16.63;51.30;98545.98;115406;1203;102024;-68